Flight Track Log - Related Links

Times and Time Zones

All times are in EDT time to prevent confusion due to time zone crossing. See the SLI2111 flight status page for this flight to view local times or setup timezone preferences in your user account.

Time Position Orientation Groundspeed Altitude Reporting Facility
EDT Latitude Longitude Course Direction KTS MPH feet Rate Location/Type
Sat 11:15:00 AM 24.8154 -107.1617 80° East  Level Estimated
Sat 11:16:00 AM 24.8323 -107.0572 80° East  Level Estimated
Sat 11:17:00 AM 24.8490 -106.9528 80° East  Level Estimated
Sat 11:18:00 AM 24.8657 -106.8483 80° East  Level Estimated
Sat 11:19:00 AM 24.8823 -106.7438 80° East  Level Estimated
Sat 11:20:00 AM 24.8988 -106.6393 80° East  Level Estimated
Sat 11:21:00 AM 24.9152 -106.5348 80° East  Level Estimated
Sat 11:22:00 AM 24.9316 -106.4302 80° East  Level Estimated
Sat 11:23:00 AM 24.9479 -106.3256 80° East  Level Estimated
Sat 11:24:00 AM 24.9642 -106.2209 80° East  Level Estimated
Sat 11:25:00 AM 24.9803 -106.1162 80° East  Level Estimated
Sat 11:26:00 AM 24.9964 -106.0116 80° East  Level Estimated
Sat 11:27:00 AM 25.0124 -105.9068 80° East  Level Estimated
Sat 11:28:00 AM 25.0284 -105.8021 80° East  Level Estimated
Sat 11:29:00 AM 25.0442 -105.6973 80° East  Level Estimated
Sat 11:30:00 AM 25.0600 -105.5925 81° East  Level Estimated
Sat 11:31:00 AM 25.0757 -105.4877 81° East  Level Estimated
Sat 11:32:00 AM 25.0914 -105.3828 81° East  Level Estimated
Sat 11:33:00 AM 25.1070 -105.2779 81° East  Level Estimated
Sat 11:34:00 AM 25.1225 -105.1730 81° East  Level Estimated
Sat 11:35:00 AM 25.1379 -105.0681 81° East  Level Estimated
Sat 11:36:00 AM 25.1532 -104.9631 81° East  Level Estimated
Sat 11:37:00 AM 25.1685 -104.8581 81° East  Level Estimated
Sat 11:38:00 AM 25.1837 -104.7531 81° East  Level Estimated
Sat 11:39:00 AM 25.1989 -104.6481 81° East  Level Estimated
Sat 11:40:00 AM 25.2139 -104.5430 81° East  Level Estimated
Sat 11:41:00 AM 25.2289 -104.4379 81° East  Level Estimated
Sat 11:42:00 AM 25.2438 -104.3328 81° East  Level Estimated
Sat 11:43:00 AM 25.2586 -104.2277 81° East  Level Estimated
Sat 11:44:00 AM 25.2734 -104.1225 81° East  Level Estimated
Sat 11:45:00 AM 25.2881 -104.0173 81° East  Level Estimated
Sat 11:46:00 AM 25.3027 -103.9121 81° East  Level Estimated
Sat 11:47:00 AM 25.3172 -103.8068 81° East  Level Estimated
Sat 11:48:00 AM 25.3317 -103.7016 81° East  Level Estimated
Sat 11:49:00 AM 25.3461 -103.5963 81° East  Level Estimated
Sat 11:50:00 AM 25.3604 -103.4910 81° East  Level Estimated
Sat 11:51:00 AM 25.3746 -103.3856 81° East  Level Estimated
Sat 11:52:00 AM 25.3888 -103.2802 82° East  Level Estimated
Sat 11:53:00 AM 25.4028 -103.1748 82° East  Level Estimated
Sat 11:54:00 AM 25.4168 -103.0694 82° East  Level Estimated
Sat 11:55:00 AM 25.4308 -102.9640 82° East  Level Estimated
Sat 11:56:00 AM 25.4446 -102.8585 82° East  Level Estimated
Sat 11:57:00 AM 25.4584 -102.7530 82° East  Level Estimated
Sat 11:58:00 AM 25.4721 -102.6475 82° East  Level Estimated
Sat 11:59:00 AM 25.4858 -102.5419 82° East  Level Estimated
Sat 12:00:00 PM 25.4993 -102.4364 82° East  Level Estimated
Sat 12:01:00 PM 25.5128 -102.3308 82° East  Level Estimated
Sat 12:02:00 PM 25.5262 -102.2252 82° East  Level Estimated
Sat 12:03:00 PM 25.5395 -102.1196 82° East  Level Estimated
Sat 12:04:00 PM 25.5528 -102.0139 82° East  Level Estimated
Sat 12:05:00 PM 25.5660 -101.9082 82° East  Level Estimated
Sat 12:06:00 PM 25.5791 -101.8025 82° East  Level Estimated
Sat 12:07:00 PM 25.5921 -101.6968 82° East  Level Estimated
Sat 12:08:00 PM 25.6050 -101.5910 82° East  Level Estimated
Sat 12:09:00 PM 25.6179 -101.4853 82° East  Level Estimated
Sat 12:10:00 PM 25.6307 -101.3794 82° East  Level Estimated
Sat 12:11:00 PM 25.6434 -101.2736 82° East  Level Estimated
Sat 12:12:00 PM 25.6561 -101.1678 82° East  Level Estimated
Sat 12:13:00 PM 25.6687 -101.0619 82° East  Level Estimated
Sat 12:14:00 PM 25.6812 -100.9560 83° East  Level Estimated
Sat 12:15:00 PM 25.6936 -100.8501 83° East  Level Estimated
Sat 12:16:00 PM 25.7059 -100.7442 83° East  Level Estimated
Sat 12:17:00 PM 25.7182 -100.6383 83° East  Level Estimated
Sat 12:18:00 PM 25.7304 -100.5323 83° East  Level Estimated
Sat 12:19:00 PM 25.7425 -100.4263 83° East  Level Estimated
Sat 12:20:00 PM 25.7545 -100.3203 83° East  Level Estimated
Sat 12:21:00 PM 25.7665 -100.2142 83° East  Level Estimated
Sat 12:22:00 PM 25.7784 -100.1082 83° East  Level Estimated
Sat 12:23:00 PM 25.7785 -100.1069 83° East  Level Estimated
Sat 12:24:00 PM 25.7785 -100.1069 119° Southeast  Level Estimated
Sat 12:25:00 PM 25.7785 -100.1069 119° Southeast  Level Estimated

Login

Don't have an account? Register now (free) for customized features, flight alerts, and more!